sensor_id;sensor_type;location;lat;lon;timestamp;P1;durP1;ratioP1;P2;durP2;ratioP2
32146;SDS011;32190;49.112;8.598;2024-01-16T00:03:24;3.95;;;2.00;;
32146;SDS011;32190;49.112;8.598;2024-01-16T00:09:18;2.85;;;2.15;;
32146;SDS011;32190;49.112;8.598;2024-01-16T00:15:17;3.55;;;2.45;;
32146;SDS011;32190;49.112;8.598;2024-01-16T00:21:08;2.75;;;1.95;;
32146;SDS011;32190;49.112;8.598;2024-01-16T00:26:58;2.30;;;1.90;;
32146;SDS011;32190;49.112;8.598;2024-01-16T00:32:52;1.85;;;1.75;;
32146;SDS011;32190;49.112;8.598;2024-01-16T00:38:42;2.92;;;1.88;;
32146;SDS011;32190;49.112;8.598;2024-01-16T00:44:33;1.90;;;1.75;;
32146;SDS011;32190;49.112;8.598;2024-01-16T00:50:24;2.78;;;2.00;;
32146;SDS011;32190;49.112;8.598;2024-01-16T00:56:21;2.92;;;2.10;;
32146;SDS011;32190;49.112;8.598;2024-01-16T01:02:17;2.08;;;1.90;;
32146;SDS011;32190;49.112;8.598;2024-01-16T01:08:14;2.45;;;2.17;;
32146;SDS011;32190;49.112;8.598;2024-01-16T01:14:04;1.88;;;1.73;;
32146;SDS011;32190;49.112;8.598;2024-01-16T01:19:55;3.08;;;1.95;;
32146;SDS011;32190;49.112;8.598;2024-01-16T01:25:46;2.10;;;1.85;;
32146;SDS011;32190;49.112;8.598;2024-01-16T01:31:50;2.67;;;1.80;;
32146;SDS011;32190;49.112;8.598;2024-01-16T01:37:40;4.13;;;2.08;;
32146;SDS011;32190;49.112;8.598;2024-01-16T01:43:31;3.40;;;2.35;;
32146;SDS011;32190;49.112;8.598;2024-01-16T01:49:25;2.00;;;1.80;;
32146;SDS011;32190;49.112;8.598;2024-01-16T01:55:19;2.67;;;2.13;;
32146;SDS011;32190;49.112;8.598;2024-01-16T02:01:13;2.38;;;1.73;;
32146;SDS011;32190;49.112;8.598;2024-01-16T02:07:06;1.95;;;1.75;;
32146;SDS011;32190;49.112;8.598;2024-01-16T02:13:04;2.67;;;1.92;;
32146;SDS011;32190;49.112;8.598;2024-01-16T02:18:57;3.97;;;2.15;;
32146;SDS011;32190;49.112;8.598;2024-01-16T02:24:48;2.42;;;1.60;;
32146;SDS011;32190;49.112;8.598;2024-01-16T02:30:41;2.47;;;2.08;;
32146;SDS011;32190;49.112;8.598;2024-01-16T02:36:32;3.05;;;1.90;;
32146;SDS011;32190;49.112;8.598;2024-01-16T02:42:23;3.10;;;2.08;;
32146;SDS011;32190;49.112;8.598;2024-01-16T02:48:13;2.92;;;1.92;;
32146;SDS011;32190;49.112;8.598;2024-01-16T02:54:07;2.13;;;1.88;;
32146;SDS011;32190;49.112;8.598;2024-01-16T02:59:58;3.00;;;1.83;;
32146;SDS011;32190;49.112;8.598;2024-01-16T03:05:52;2.60;;;1.83;;
32146;SDS011;32190;49.112;8.598;2024-01-16T03:11:42;2.45;;;1.52;;
32146;SDS011;32190;49.112;8.598;2024-01-16T03:17:36;2.17;;;1.75;;
32146;SDS011;32190;49.112;8.598;2024-01-16T03:23:26;2.22;;;1.77;;
32146;SDS011;32190;49.112;8.598;2024-01-16T03:29:24;2.00;;;1.58;;
32146;SDS011;32190;49.112;8.598;2024-01-16T03:35:31;2.05;;;1.75;;
32146;SDS011;32190;49.112;8.598;2024-01-16T03:41:30;2.50;;;1.85;;
32146;SDS011;32190;49.112;8.598;2024-01-16T03:47:21;3.00;;;1.73;;
32146;SDS011;32190;49.112;8.598;2024-01-16T03:53:11;1.70;;;1.60;;
32146;SDS011;32190;49.112;8.598;2024-01-16T03:59:08;2.10;;;1.90;;
32146;SDS011;32190;49.112;8.598;2024-01-16T04:05:05;1.70;;;1.60;;
32146;SDS011;32190;49.112;8.598;2024-01-16T04:11:04;2.55;;;1.80;;
32146;SDS011;32190;49.112;8.598;2024-01-16T04:17:04;2.20;;;1.60;;
32146;SDS011;32190;49.112;8.598;2024-01-16T04:22:55;2.58;;;2.03;;
32146;SDS011;32190;49.112;8.598;2024-01-16T04:29:03;4.45;;;2.20;;
32146;SDS011;32190;49.112;8.598;2024-01-16T04:34:54;2.13;;;1.77;;
32146;SDS011;32190;49.112;8.598;2024-01-16T04:40:45;3.33;;;2.20;;
32146;SDS011;32190;49.112;8.598;2024-01-16T04:46:36;2.35;;;1.80;;
32146;SDS011;32190;49.112;8.598;2024-01-16T04:52:26;2.78;;;1.83;;
32146;SDS011;32190;49.112;8.598;2024-01-16T04:58:17;2.78;;;1.92;;
32146;SDS011;32190;49.112;8.598;2024-01-16T05:04:08;2.03;;;1.77;;
32146;SDS011;32190;49.112;8.598;2024-01-16T05:10:00;2.42;;;1.60;;
32146;SDS011;32190;49.112;8.598;2024-01-16T05:15:50;2.30;;;1.65;;
32146;SDS011;32190;49.112;8.598;2024-01-16T05:21:41;1.75;;;1.60;;
32146;SDS011;32190;49.112;8.598;2024-01-16T05:27:31;2.03;;;1.85;;
32146;SDS011;32190;49.112;8.598;2024-01-16T05:33:22;2.25;;;1.75;;
32146;SDS011;32190;49.112;8.598;2024-01-16T05:39:13;2.10;;;1.88;;
32146;SDS011;32190;49.112;8.598;2024-01-16T05:45:04;3.00;;;2.05;;
32146;SDS011;32190;49.112;8.598;2024-01-16T05:50:55;3.33;;;2.13;;
32146;SDS011;32190;49.112;8.598;2024-01-16T05:56:45;2.85;;;1.83;;
32146;SDS011;32190;49.112;8.598;2024-01-16T06:02:36;4.32;;;2.33;;
32146;SDS011;32190;49.112;8.598;2024-01-16T06:08:26;1.95;;;1.70;;
32146;SDS011;32190;49.112;8.598;2024-01-16T06:14:17;1.77;;;1.55;;
32146;SDS011;32190;49.112;8.598;2024-01-16T06:20:11;2.53;;;1.77;;
32146;SDS011;32190;49.112;8.598;2024-01-16T06:26:02;2.75;;;2.13;;
32146;SDS011;32190;49.112;8.598;2024-01-16T06:31:53;3.20;;;2.28;;
32146;SDS011;32190;49.112;8.598;2024-01-16T06:37:44;3.58;;;2.00;;
32146;SDS011;32190;49.112;8.598;2024-01-16T06:43:34;2.30;;;2.10;;
32146;SDS011;32190;49.112;8.598;2024-01-16T06:49:25;3.00;;;2.20;;
32146;SDS011;32190;49.112;8.598;2024-01-16T06:55:17;4.20;;;2.47;;
32146;SDS011;32190;49.112;8.598;2024-01-16T07:01:08;2.53;;;2.00;;
32146;SDS011;32190;49.112;8.598;2024-01-16T07:06:59;3.70;;;2.38;;
32146;SDS011;32190;49.112;8.598;2024-01-16T07:12:50;3.33;;;2.00;;
32146;SDS011;32190;49.112;8.598;2024-01-16T07:18:41;4.47;;;2.65;;
32146;SDS011;32190;49.112;8.598;2024-01-16T07:24:32;2.80;;;2.05;;
32146;SDS011;32190;49.112;8.598;2024-01-16T07:30:22;3.08;;;2.45;;
32146;SDS011;32190;49.112;8.598;2024-01-16T07:36:13;2.72;;;1.85;;
32146;SDS011;32190;49.112;8.598;2024-01-16T07:42:09;3.67;;;2.47;;
32146;SDS011;32190;49.112;8.598;2024-01-16T07:55:35;2.70;;;2.50;;
32146;SDS011;32190;49.112;8.598;2024-01-16T08:01:30;3.72;;;2.42;;
32146;SDS011;32190;49.112;8.598;2024-01-16T08:14:07;3.97;;;2.20;;
32146;SDS011;32190;49.112;8.598;2024-01-16T08:20:27;2.97;;;2.30;;
32146;SDS011;32190;49.112;8.598;2024-01-16T08:26:33;2.60;;;2.03;;
32146;SDS011;32190;49.112;8.598;2024-01-16T08:39:31;2.67;;;2.15;;
32146;SDS011;32190;49.112;8.598;2024-01-16T08:45:33;2.45;;;2.13;;
32146;SDS011;32190;49.112;8.598;2024-01-16T08:51:34;2.28;;;2.08;;
32146;SDS011;32190;49.112;8.598;2024-01-16T08:57:38;2.38;;;1.65;;
32146;SDS011;32190;49.112;8.598;2024-01-16T09:03:41;2.53;;;2.10;;
32146;SDS011;32190;49.112;8.598;2024-01-16T09:09:38;2.73;;;1.60;;
32146;SDS011;32190;49.112;8.598;2024-01-16T09:15:41;2.55;;;1.65;;
32146;SDS011;32190;49.112;8.598;2024-01-16T09:21:56;1.58;;;1.48;;
32146;SDS011;32190;49.112;8.598;2024-01-16T09:28:11;2.05;;;1.85;;
32146;SDS011;32190;49.112;8.598;2024-01-16T11:15:33;2.70;;;1.65;;
32146;SDS011;32190;49.112;8.598;2024-01-16T11:21:27;2.63;;;1.80;;
32146;SDS011;32190;49.112;8.598;2024-01-16T11:27:27;2.67;;;1.83;;
32146;SDS011;32190;49.112;8.598;2024-01-16T11:47:09;2.42;;;1.80;;
32146;SDS011;32190;49.112;8.598;2024-01-16T12:17:28;1.75;;;1.48;;
32146;SDS011;32190;49.112;8.598;2024-01-16T12:29:17;2.20;;;1.35;;
32146;SDS011;32190;49.112;8.598;2024-01-16T12:35:20;1.48;;;1.30;;
32146;SDS011;32190;49.112;8.598;2024-01-16T12:41:41;1.65;;;1.35;;
32146;SDS011;32190;49.112;8.598;2024-01-16T12:47:36;1.33;;;1.23;;
32146;SDS011;32190;49.112;8.598;2024-01-16T13:18:28;2.17;;;1.20;;
32146;SDS011;32190;49.112;8.598;2024-01-16T13:49:38;0.93;;;0.88;;
32146;SDS011;32190;49.112;8.598;2024-01-16T13:55:43;1.13;;;0.77;;
32146;SDS011;32190;49.112;8.598;2024-01-16T14:08:07;1.30;;;0.80;;
32146;SDS011;32190;49.112;8.598;2024-01-16T14:14:16;1.40;;;0.87;;
32146;SDS011;32190;49.112;8.598;2024-01-16T14:20:10;1.10;;;1.00;;
32146;SDS011;32190;49.112;8.598;2024-01-16T14:26:18;0.60;;;0.60;;
32146;SDS011;32190;49.112;8.598;2024-01-16T14:32:57;1.35;;;0.70;;
32146;SDS011;32190;49.112;8.598;2024-01-16T14:45:17;1.02;;;0.75;;
32146;SDS011;32190;49.112;8.598;2024-01-16T14:51:17;1.50;;;1.00;;
32146;SDS011;32190;49.112;8.598;2024-01-16T14:57:21;0.98;;;0.80;;
32146;SDS011;32190;49.112;8.598;2024-01-16T15:03:14;1.05;;;0.70;;
32146;SDS011;32190;49.112;8.598;2024-01-16T15:09:05;0.60;;;0.60;;
32146;SDS011;32190;49.112;8.598;2024-01-16T15:14:55;0.50;;;0.50;;
32146;SDS011;32190;49.112;8.598;2024-01-16T15:20:49;0.57;;;0.57;;
32146;SDS011;32190;49.112;8.598;2024-01-16T15:26:40;1.75;;;0.77;;
32146;SDS011;32190;49.112;8.598;2024-01-16T15:32:34;1.00;;;0.82;;
32146;SDS011;32190;49.112;8.598;2024-01-16T15:39:03;0.77;;;0.77;;
32146;SDS011;32190;49.112;8.598;2024-01-16T15:52:24;0.98;;;0.77;;
32146;SDS011;32190;49.112;8.598;2024-01-16T15:58:24;1.98;;;0.70;;
32146;SDS011;32190;49.112;8.598;2024-01-16T16:04:15;0.98;;;0.60;;
32146;SDS011;32190;49.112;8.598;2024-01-16T16:10:16;0.55;;;0.55;;
32146;SDS011;32190;49.112;8.598;2024-01-16T16:16:27;1.75;;;0.75;;
32146;SDS011;32190;49.112;8.598;2024-01-16T16:22:39;0.52;;;0.52;;
32146;SDS011;32190;49.112;8.598;2024-01-16T17:34:17;0.55;;;0.55;;
32146;SDS011;32190;49.112;8.598;2024-01-16T17:40:45;0.60;;;0.60;;
32146;SDS011;32190;49.112;8.598;2024-01-16T17:46:55;1.42;;;0.70;;
32146;SDS011;32190;49.112;8.598;2024-01-16T17:52:46;1.47;;;0.90;;
32146;SDS011;32190;49.112;8.598;2024-01-16T18:05:28;1.42;;;1.05;;
32146;SDS011;32190;49.112;8.598;2024-01-16T18:11:55;1.92;;;1.77;;
32146;SDS011;32190;49.112;8.598;2024-01-16T18:17:47;2.92;;;1.10;;
32146;SDS011;32190;49.112;8.598;2024-01-16T18:24:20;0.88;;;0.80;;
32146;SDS011;32190;49.112;8.598;2024-01-16T18:30:50;0.77;;;0.77;;
32146;SDS011;32190;49.112;8.598;2024-01-16T18:43:21;1.15;;;1.00;;
32146;SDS011;32190;49.112;8.598;2024-01-16T18:56:14;1.00;;;0.90;;
32146;SDS011;32190;49.112;8.598;2024-01-16T19:02:16;1.52;;;1.00;;
32146;SDS011;32190;49.112;8.598;2024-01-16T19:08:20;1.13;;;1.13;;
32146;SDS011;32190;49.112;8.598;2024-01-16T19:14:32;0.88;;;0.80;;
32146;SDS011;32190;49.112;8.598;2024-01-16T19:21:00;1.77;;;0.90;;
32146;SDS011;32190;49.112;8.598;2024-01-16T19:46:28;1.45;;;0.77;;
32146;SDS011;32190;49.112;8.598;2024-01-16T19:52:46;1.00;;;0.90;;
32146;SDS011;32190;49.112;8.598;2024-01-16T19:58:46;0.80;;;0.80;;
32146;SDS011;32190;49.112;8.598;2024-01-16T20:04:58;1.52;;;1.08;;
32146;SDS011;32190;49.112;8.598;2024-01-16T20:11:10;1.88;;;1.00;;
32146;SDS011;32190;49.112;8.598;2024-01-16T20:17:22;1.58;;;1.17;;
32146;SDS011;32190;49.112;8.598;2024-01-16T20:35:41;2.97;;;1.42;;
32146;SDS011;32190;49.112;8.598;2024-01-16T20:41:44;1.48;;;1.38;;
32146;SDS011;32190;49.112;8.598;2024-01-16T20:47:40;2.50;;;1.77;;
32146;SDS011;32190;49.112;8.598;2024-01-16T20:54:00;4.13;;;2.80;;
32146;SDS011;32190;49.112;8.598;2024-01-16T21:00:06;2.28;;;1.98;;
32146;SDS011;32190;49.112;8.598;2024-01-16T21:06:03;2.85;;;2.03;;
32146;SDS011;32190;49.112;8.598;2024-01-16T21:12:14;2.25;;;2.05;;
32146;SDS011;32190;49.112;8.598;2024-01-16T21:24:55;1.70;;;1.60;;
32146;SDS011;32190;49.112;8.598;2024-01-16T21:30:48;2.22;;;2.00;;
32146;SDS011;32190;49.112;8.598;2024-01-16T21:42:36;3.05;;;1.80;;
32146;SDS011;32190;49.112;8.598;2024-01-16T21:48:33;2.10;;;1.90;;
32146;SDS011;32190;49.112;8.598;2024-01-16T21:54:25;1.98;;;1.75;;
32146;SDS011;32190;49.112;8.598;2024-01-16T22:01:12;2.83;;;2.40;;
32146;SDS011;32190;49.112;8.598;2024-01-16T22:14:20;2.92;;;1.90;;
32146;SDS011;32190;49.112;8.598;2024-01-16T22:20:12;3.08;;;2.00;;
32146;SDS011;32190;49.112;8.598;2024-01-16T22:26:15;4.88;;;2.03;;
32146;SDS011;32190;49.112;8.598;2024-01-16T22:32:42;4.13;;;2.58;;
32146;SDS011;32190;49.112;8.598;2024-01-16T22:38:41;2.63;;;2.20;;
32146;SDS011;32190;49.112;8.598;2024-01-16T22:51:10;2.38;;;2.17;;
32146;SDS011;32190;49.112;8.598;2024-01-16T22:57:09;3.20;;;2.17;;
32146;SDS011;32190;49.112;8.598;2024-01-16T23:03:00;3.70;;;2.35;;
32146;SDS011;32190;49.112;8.598;2024-01-16T23:08:58;3.17;;;2.33;;
32146;SDS011;32190;49.112;8.598;2024-01-16T23:15:18;1.98;;;1.65;;
32146;SDS011;32190;49.112;8.598;2024-01-16T23:21:14;3.78;;;2.40;;
32146;SDS011;32190;49.112;8.598;2024-01-16T23:27:12;3.10;;;2.47;;
32146;SDS011;32190;49.112;8.598;2024-01-16T23:33:17;4.57;;;2.55;;
32146;SDS011;32190;49.112;8.598;2024-01-16T23:39:22;4.38;;;2.55;;
32146;SDS011;32190;49.112;8.598;2024-01-16T23:45:14;3.60;;;2.83;;
32146;SDS011;32190;49.112;8.598;2024-01-16T23:51:31;3.20;;;2.40;;
32146;SDS011;32190;49.112;8.598;2024-01-16T23:57:33;4.03;;;2.88;;
